createdAt,value
2023-05-20T00:00:25.588Z,1.80
2023-05-20T00:05:49.007Z,1.70
2023-05-20T00:10:53.051Z,1.50
2023-05-20T00:15:55.846Z,1.70
2023-05-20T00:20:58.996Z,1.90
2023-05-20T00:26:03.978Z,1.40
2023-05-20T00:31:06.759Z,1.90
2023-05-20T00:36:09.608Z,1.80
2023-05-20T00:41:12.492Z,1.80
2023-05-20T00:46:17.590Z,1.50
2023-05-20T00:51:21.749Z,1.60
2023-05-20T00:56:26.227Z,1.90
2023-05-20T01:01:29.082Z,1.70
2023-05-20T01:06:33.777Z,1.70
2023-05-20T01:11:50.547Z,1.80
2023-05-20T01:16:56.114Z,1.50
2023-05-20T01:22:06.434Z,1.80
2023-05-20T01:27:15.903Z,1.50
2023-05-20T01:32:27.972Z,1.60
2023-05-20T01:37:32.542Z,1.60
2023-05-20T01:42:36.865Z,1.80
2023-05-20T01:47:39.753Z,1.40
2023-05-20T01:52:42.537Z,1.60
2023-05-20T01:57:45.321Z,1.50
2023-05-20T02:02:48.154Z,1.40
2023-05-20T02:07:56.572Z,1.60
2023-05-20T02:12:59.716Z,1.60
2023-05-20T02:18:02.894Z,2.10
2023-05-20T02:23:06.037Z,1.70
2023-05-20T02:28:10.796Z,1.60
2023-05-20T02:33:16.904Z,1.80
2023-05-20T02:38:22.794Z,1.80
2023-05-20T02:43:26.489Z,1.90
2023-05-20T02:48:29.666Z,2.30
2023-05-20T02:53:32.426Z,2.20
2023-05-20T02:58:35.670Z,2.10
2023-05-20T03:03:38.389Z,2.10
2023-05-20T03:08:45.230Z,1.50
2023-05-20T03:13:50.078Z,1.70
2023-05-20T03:18:54.659Z,1.80
2023-05-20T03:23:57.462Z,1.60
2023-05-20T03:29:00.395Z,1.40
2023-05-20T03:34:04.778Z,1.80
2023-05-20T03:39:07.492Z,1.80
2023-05-20T03:44:10.984Z,1.70
2023-05-20T03:49:13.639Z,1.70
2023-05-20T03:54:19.733Z,1.80
2023-05-20T03:59:47.893Z,1.80
2023-05-20T04:04:53.855Z,1.70
2023-05-20T04:09:59.518Z,1.70
2023-05-20T04:15:04.679Z,1.80
2023-05-20T04:20:08.812Z,1.70
2023-05-20T04:25:15.758Z,2.70
2023-05-20T04:30:18.558Z,2.40
2023-05-20T04:35:21.666Z,2.30
2023-05-20T04:40:24.433Z,2.20
2023-05-20T04:45:27.212Z,2.00
2023-05-20T04:50:30.110Z,1.90
2023-05-20T04:55:32.978Z,2.20
2023-05-20T05:00:39.807Z,2.70
2023-05-20T05:05:42.773Z,2.00
2023-05-20T05:10:46.691Z,2.10
2023-05-20T05:16:02.053Z,2.20
2023-05-20T05:21:07.003Z,2.30
2023-05-20T05:26:10.875Z,2.40
2023-05-20T05:31:13.752Z,2.00
2023-05-20T05:36:17.400Z,2.30
2023-05-20T05:41:25.301Z,2.20
2023-05-20T05:46:28.124Z,2.20
2023-05-20T05:51:31.105Z,1.90
2023-05-20T05:56:33.775Z,2.20
2023-05-20T06:01:39.647Z,2.00
2023-05-20T06:06:42.610Z,2.10
2023-05-20T06:11:45.234Z,2.00
2023-05-20T06:16:47.945Z,2.20
2023-05-20T06:21:52.746Z,2.60
2023-05-20T06:26:55.430Z,2.40
2023-05-20T06:32:00.166Z,2.30
2023-05-20T06:37:03.578Z,2.40
2023-05-20T06:42:06.194Z,2.20
2023-05-20T06:47:14.897Z,2.40
2023-05-20T06:52:17.612Z,2.50
2023-05-20T06:57:20.750Z,3.10
2023-05-20T07:02:27.931Z,3.40
2023-05-20T07:07:33.110Z,2.40
2023-05-20T07:12:38.571Z,2.30
2023-05-20T07:17:41.179Z,2.40
2023-05-20T07:22:47.836Z,2.20
2023-05-20T07:27:52.675Z,2.30
2023-05-20T07:32:56.838Z,2.10
2023-05-20T07:38:02.319Z,2.30
2023-05-20T07:43:05.081Z,2.80
2023-05-20T07:48:08.928Z,2.80
2023-05-20T07:53:12.278Z,2.30
2023-05-20T07:58:16.925Z,2.30
2023-05-20T08:03:22.832Z,2.60
2023-05-20T08:08:31.674Z,2.30
2023-05-20T08:13:34.294Z,2.40
2023-05-20T08:18:37.971Z,2.60
2023-05-20T08:23:40.924Z,3.00
2023-05-20T08:28:43.827Z,2.50
2023-05-20T08:33:49.563Z,2.60
2023-05-20T08:38:53.505Z,2.60
2023-05-20T08:44:00.939Z,2.40
2023-05-20T08:49:04.100Z,2.60
2023-05-20T08:54:09.271Z,2.80
2023-05-20T08:59:13.808Z,2.60
2023-05-20T09:04:26.096Z,2.50
2023-05-20T09:09:33.048Z,2.60
2023-05-20T09:14:35.932Z,4.10
2023-05-20T09:19:39.105Z,2.50
2023-05-20T09:24:42.830Z,2.20
2023-05-20T09:29:48.838Z,2.40
2023-05-20T09:34:52.562Z,3.00
2023-05-20T09:39:59.864Z,2.70
2023-05-20T09:45:09.405Z,2.70
2023-05-20T09:50:15.436Z,3.20
2023-05-20T09:55:21.994Z,2.50
2023-05-20T10:00:24.766Z,2.80
2023-05-20T10:05:37.532Z,3.40
2023-05-20T10:10:53.072Z,2.80
2023-05-20T10:16:20.734Z,2.80
2023-05-20T10:21:25.380Z,3.30
2023-05-20T10:26:40.945Z,3.10
2023-05-20T10:31:53.580Z,3.20
2023-05-20T10:36:56.203Z,2.70
2023-05-20T10:42:10.049Z,3.60
2023-05-20T10:52:20.784Z,3.20
2023-05-20T10:57:26.338Z,2.80
2023-05-20T11:02:29.705Z,3.70
2023-05-20T11:07:34.191Z,3.30
2023-05-20T11:12:36.949Z,3.30
2023-05-20T11:17:55.760Z,3.30
2023-05-20T11:22:58.639Z,3.30
2023-05-20T11:28:01.301Z,3.10
2023-05-20T11:33:06.255Z,3.30
2023-05-20T11:38:09.821Z,3.50
2023-05-20T11:43:15.599Z,3.90
2023-05-20T11:48:19.757Z,3.80
2023-05-20T11:53:24.302Z,3.80
2023-05-20T11:58:32.442Z,4.60
2023-05-20T12:03:36.883Z,4.00
2023-05-20T12:08:42.145Z,4.50
2023-05-20T12:13:47.068Z,4.10
2023-05-20T12:18:53.052Z,4.40
2023-05-20T12:23:59.274Z,3.50
2023-05-20T12:29:02.178Z,4.20
2023-05-20T12:34:04.765Z,4.20
2023-05-20T12:39:07.557Z,4.10
2023-05-20T12:44:10.742Z,4.10
2023-05-20T12:49:16.308Z,4.30
2023-05-20T12:54:22.350Z,3.60
2023-05-20T12:59:25.144Z,4.80
2023-05-20T13:04:28.213Z,5.50
2023-05-20T13:09:33.221Z,9.50
2023-05-20T13:14:35.868Z,4.40
2023-05-20T13:19:39.004Z,4.10
2023-05-20T13:24:43.068Z,4.10
2023-05-20T13:29:46.128Z,4.70
2023-05-20T13:34:49.227Z,4.20
2023-05-20T13:39:54.124Z,4.80
2023-05-20T13:44:57.156Z,4.90
2023-05-20T13:50:03.382Z,4.70
2023-05-20T13:55:07.684Z,4.90
2023-05-20T14:00:11.804Z,4.60
2023-05-20T14:05:14.723Z,4.70
2023-05-20T14:10:17.385Z,4.90
2023-05-20T14:15:21.015Z,4.80
2023-05-20T14:20:25.652Z,5.10
2023-05-20T14:25:28.863Z,5.40
2023-05-20T14:30:31.780Z,6.80
2023-05-20T14:35:34.914Z,5.60
2023-05-20T14:40:37.909Z,5.20
2023-05-20T14:45:40.649Z,5.70
2023-05-20T14:50:43.538Z,5.20
2023-05-20T14:55:48.255Z,5.40
2023-05-20T15:00:53.365Z,5.90
2023-05-20T15:05:59.207Z,5.90
2023-05-20T15:11:02.036Z,5.60
2023-05-20T15:16:08.201Z,6.10
2023-05-20T15:21:11.251Z,5.30
2023-05-20T15:26:13.900Z,6.10
2023-05-20T15:31:22.938Z,5.40
2023-05-20T15:36:25.573Z,5.50
2023-05-20T15:41:34.846Z,5.50
2023-05-20T15:46:37.913Z,5.50
2023-05-20T15:51:52.259Z,5.50
2023-05-20T15:57:05.880Z,5.00
2023-05-20T16:02:08.818Z,5.10
2023-05-20T16:07:11.764Z,5.40
2023-05-20T16:12:16.577Z,5.10
2023-05-20T16:17:21.386Z,5.50
2023-05-20T16:22:24.120Z,5.50
2023-05-20T16:27:26.870Z,6.00
2023-05-20T16:32:32.257Z,5.40
2023-05-20T16:37:35.125Z,5.90
2023-05-20T16:42:39.562Z,5.40
2023-05-20T16:47:42.341Z,5.90
2023-05-20T16:52:45.385Z,6.10
2023-05-20T16:57:48.966Z,5.90
2023-05-20T17:02:51.767Z,5.60
2023-05-20T17:07:59.078Z,6.20
2023-05-20T17:13:02.073Z,6.20
2023-05-20T17:18:05.196Z,5.40
2023-05-20T17:23:08.046Z,6.60
2023-05-20T17:28:10.827Z,6.50
2023-05-20T17:33:14.320Z,6.40
2023-05-20T17:38:18.940Z,7.30
2023-05-20T17:43:26.724Z,6.10
2023-05-20T17:48:29.429Z,7.00
2023-05-20T17:53:32.352Z,6.70
2023-05-20T17:58:38.164Z,7.20
2023-05-20T18:03:41.191Z,7.00
2023-05-20T18:08:46.309Z,7.10
2023-05-20T18:13:49.078Z,7.90
2023-05-20T18:18:53.250Z,8.10
2023-05-20T18:23:58.486Z,7.50
2023-05-20T18:29:02.713Z,7.20
2023-05-20T18:34:05.442Z,7.80
2023-05-20T18:39:08.147Z,7.60
2023-05-20T18:44:10.840Z,7.90
2023-05-20T18:49:13.755Z,8.50
2023-05-20T18:54:18.202Z,8.00
2023-05-20T18:59:25.291Z,9.30
2023-05-20T19:04:28.057Z,7.90
2023-05-20T19:09:30.713Z,8.10
2023-05-20T19:14:35.781Z,8.60
2023-05-20T19:19:38.426Z,8.10
2023-05-20T19:24:41.612Z,8.20
2023-05-20T19:29:44.364Z,8.40
2023-05-20T19:34:49.633Z,9.40
2023-05-20T19:39:53.269Z,13.40
2023-05-20T19:44:59.262Z,11.50
2023-05-20T19:50:05.005Z,22.10
2023-05-20T19:55:08.461Z,12.80
2023-05-20T20:00:12.920Z,11.10
2023-05-20T20:05:16.233Z,11.30
2023-05-20T20:10:22.436Z,9.80
2023-05-20T20:15:25.699Z,12.10
2023-05-20T20:20:29.642Z,12.90
2023-05-20T20:25:34.701Z,12.00
2023-05-20T20:30:40.877Z,9.60
2023-05-20T20:35:44.475Z,27.60
2023-05-20T20:40:47.569Z,13.80
2023-05-20T20:45:54.925Z,10.50
2023-05-20T20:50:57.614Z,11.20
2023-05-20T20:56:00.370Z,29.90
2023-05-20T21:01:06.880Z,17.50
2023-05-20T21:06:12.907Z,10.50
2023-05-20T21:11:21.769Z,11.40
2023-05-20T21:16:24.730Z,12.00
2023-05-20T21:21:31.013Z,9.00
2023-05-20T21:26:33.895Z,13.40
2023-05-20T21:31:36.571Z,11.20
2023-05-20T21:36:40.893Z,10.00
2023-05-20T21:41:43.512Z,9.10
2023-05-20T21:46:46.213Z,11.10
2023-05-20T21:51:49.114Z,11.00
2023-05-20T21:56:54.343Z,8.70
2023-05-20T22:01:58.308Z,8.90
2023-05-20T22:07:03.900Z,10.20
2023-05-20T22:12:07.781Z,9.20
2023-05-20T22:17:10.702Z,9.30
2023-05-20T22:22:13.424Z,8.90
2023-05-20T22:27:20.682Z,10.00
2023-05-20T22:32:23.591Z,12.40
2023-05-20T22:37:28.741Z,8.40
2023-05-20T22:42:40.645Z,7.70
2023-05-20T22:47:45.692Z,9.40
2023-05-20T22:52:48.765Z,9.60
2023-05-20T22:57:51.632Z,9.40
2023-05-20T23:02:56.627Z,10.90
2023-05-20T23:07:59.450Z,10.20
2023-05-20T23:13:02.135Z,8.70
2023-05-20T23:18:07.569Z,10.30
2023-05-20T23:23:37.422Z,9.40
2023-05-20T23:28:50.676Z,10.30
2023-05-20T23:34:11.406Z,11.30
2023-05-20T23:39:15.242Z,10.50
2023-05-20T23:44:19.598Z,10.00
2023-05-20T23:49:27.162Z,10.70
2023-05-20T23:54:34.593Z,12.40
2023-05-20T23:59:40.588Z,11.40
